createdAt,value
2017-09-29T00:01:49.758Z,27.13
2017-09-29T00:04:18.054Z,31.63
2017-09-29T00:06:46.378Z,39.23
2017-09-29T00:09:14.679Z,35.10
2017-09-29T00:11:43.003Z,47.83
2017-09-29T00:14:12.066Z,33.30
2017-09-29T00:16:40.366Z,35.47
2017-09-29T00:19:08.690Z,28.23
2017-09-29T00:21:36.995Z,33.23
2017-09-29T00:24:05.301Z,29.80
2017-09-29T00:26:33.581Z,38.57
2017-09-29T00:29:01.886Z,33.70
2017-09-29T00:31:30.312Z,29.93
2017-09-29T00:33:58.603Z,33.90
2017-09-29T00:36:26.894Z,34.90
2017-09-29T00:38:55.190Z,37.43
2017-09-29T00:41:23.488Z,34.53
2017-09-29T00:43:51.783Z,33.87
2017-09-29T00:46:20.078Z,32.10
2017-09-29T00:48:48.407Z,38.73
2017-09-29T00:51:16.700Z,41.43
2017-09-29T00:53:45.123Z,39.63
2017-09-29T00:56:13.416Z,41.47
2017-09-29T00:58:41.709Z,35.37
2017-09-29T01:01:10.013Z,42.40
2017-09-29T01:03:38.333Z,48.70
2017-09-29T01:06:06.666Z,42.17
2017-09-29T01:08:35.726Z,41.70
2017-09-29T01:11:04.025Z,39.10
2017-09-29T01:13:32.314Z,36.27
2017-09-29T01:16:00.617Z,37.63
2017-09-29T01:18:29.011Z,51.97
2017-09-29T01:20:57.296Z,42.97
2017-09-29T01:23:26.394Z,39.17
2017-09-29T01:25:55.518Z,42.73
2017-09-29T01:28:24.665Z,41.40
2017-09-29T01:30:53.051Z,43.10
2017-09-29T01:33:22.188Z,51.10
2017-09-29T01:35:50.524Z,44.43
2017-09-29T01:38:18.862Z,43.07
2017-09-29T01:40:47.202Z,51.40
2017-09-29T01:43:15.565Z,36.70
2017-09-29T01:45:43.896Z,41.47
2017-09-29T01:48:13.073Z,44.00
2017-09-29T01:50:41.434Z,50.43
2017-09-29T01:53:09.806Z,48.73
2017-09-29T01:55:38.139Z,38.10
2017-09-29T01:58:06.487Z,57.57
2017-09-29T02:00:34.838Z,51.07
2017-09-29T02:03:03.184Z,49.30
2017-09-29T02:05:31.563Z,42.10
2017-09-29T02:07:59.905Z,43.10
2017-09-29T02:10:28.275Z,45.17
2017-09-29T02:12:56.648Z,48.13
2017-09-29T02:15:25.158Z,43.03
2017-09-29T02:17:53.581Z,50.07
2017-09-29T02:20:21.947Z,48.87
2017-09-29T02:22:50.276Z,55.20
2017-09-29T02:25:18.612Z,42.97
2017-09-29T02:27:46.964Z,40.87
2017-09-29T02:30:16.095Z,53.27
2017-09-29T02:32:44.485Z,44.50
2017-09-29T02:35:13.603Z,53.57
2017-09-29T02:37:42.703Z,56.70
2017-09-29T02:40:11.036Z,52.30
2017-09-29T02:42:40.167Z,48.17
2017-09-29T02:45:08.468Z,55.90
2017-09-29T02:47:36.808Z,45.23
2017-09-29T02:50:05.161Z,52.60
2017-09-29T02:52:34.302Z,54.80
2017-09-29T02:55:02.647Z,52.50
2017-09-29T02:57:33.592Z,57.27
2017-09-29T03:00:07.142Z,61.30
2017-09-29T03:02:36.079Z,66.97
2017-09-29T03:05:07.283Z,47.33
2017-09-29T03:07:35.702Z,50.00
2017-09-29T03:10:03.996Z,47.10
2017-09-29T03:12:33.153Z,49.13
2017-09-29T03:15:01.446Z,51.97
2017-09-29T03:17:29.763Z,55.17
2017-09-29T03:19:58.055Z,59.00
2017-09-29T03:22:26.351Z,52.83
2017-09-29T03:24:54.634Z,54.50
2017-09-29T03:27:22.931Z,55.23
2017-09-29T03:29:51.221Z,53.53
2017-09-29T03:32:19.542Z,56.87
2017-09-29T03:34:47.840Z,51.37
2017-09-29T03:37:16.163Z,60.73
2017-09-29T03:39:44.495Z,54.30
2017-09-29T03:42:12.918Z,54.87
2017-09-29T03:44:41.983Z,59.00
2017-09-29T03:47:10.272Z,60.67
2017-09-29T03:49:38.562Z,57.80
2017-09-29T03:52:08.277Z,59.47
2017-09-29T03:54:40.099Z,55.73
2017-09-29T03:57:11.582Z,58.67
2017-09-29T03:59:39.995Z,58.00
2017-09-29T04:02:08.321Z,70.13
2017-09-29T04:04:36.623Z,69.90
2017-09-29T04:07:04.942Z,54.63
2017-09-29T04:09:34.039Z,60.30
2017-09-29T04:12:02.347Z,52.60
2017-09-29T04:14:30.649Z,66.17
2017-09-29T04:16:58.942Z,62.90
2017-09-29T04:19:27.236Z,58.90
2017-09-29T04:21:55.562Z,65.93
2017-09-29T04:24:24.629Z,69.07
2017-09-29T04:26:52.921Z,55.33
2017-09-29T04:29:21.238Z,49.20
2017-09-29T04:31:49.549Z,62.70
2017-09-29T04:34:17.869Z,51.17
2017-09-29T04:36:46.201Z,54.77
2017-09-29T04:39:15.267Z,45.17
2017-09-29T04:41:43.560Z,47.90
2017-09-29T04:44:11.864Z,52.13
2017-09-29T04:46:40.158Z,41.30
2017-09-29T04:49:08.446Z,40.83
2017-09-29T04:51:36.746Z,50.13
2017-09-29T04:54:05.076Z,40.63
2017-09-29T04:56:33.378Z,39.33
2017-09-29T04:59:01.687Z,38.37
2017-09-29T05:01:30.022Z,44.97
2017-09-29T05:03:58.335Z,52.60
2017-09-29T05:06:27.415Z,46.97
2017-09-29T05:08:55.693Z,49.47
2017-09-29T05:11:23.990Z,45.73
2017-09-29T05:13:52.321Z,40.73
2017-09-29T05:16:20.625Z,44.07
2017-09-29T05:18:48.918Z,43.60
2017-09-29T05:21:17.230Z,47.60
2017-09-29T05:23:45.519Z,49.20
2017-09-29T05:26:13.882Z,37.73
2017-09-29T05:28:42.950Z,44.77
2017-09-29T05:31:11.275Z,45.73
2017-09-29T05:33:39.574Z,43.00
2017-09-29T05:36:07.899Z,46.03
2017-09-29T05:38:36.960Z,55.60
2017-09-29T05:41:05.252Z,47.00
2017-09-29T05:43:33.563Z,50.27
2017-09-29T05:46:01.881Z,55.27
2017-09-29T05:48:30.172Z,45.43
2017-09-29T05:50:58.717Z,48.80
2017-09-29T05:53:27.205Z,57.10
2017-09-29T05:55:55.502Z,43.63
2017-09-29T05:58:23.803Z,40.37
2017-09-29T06:00:52.125Z,35.53
2017-09-29T06:03:20.415Z,30.13
2017-09-29T06:05:48.860Z,30.80
2017-09-29T06:08:17.975Z,31.40
2017-09-29T06:10:47.166Z,25.30
2017-09-29T06:13:15.474Z,25.33
2017-09-29T06:15:43.758Z,19.73
2017-09-29T06:18:12.089Z,22.63
2017-09-29T06:20:40.422Z,12.50
2017-09-29T06:23:08.743Z,11.57
2017-09-29T06:25:37.052Z,11.47
2017-09-29T06:28:05.337Z,12.93
2017-09-29T06:30:33.632Z,13.47
2017-09-29T06:33:02.253Z,15.50
2017-09-29T06:35:30.543Z,19.60
2017-09-29T06:37:58.958Z,11.23
2017-09-29T06:40:27.255Z,13.60
2017-09-29T06:42:55.533Z,15.53
2017-09-29T06:45:24.592Z,8.00
2017-09-29T06:47:52.867Z,9.00
2017-09-29T06:50:21.177Z,12.33
2017-09-29T06:52:49.510Z,11.77
2017-09-29T06:55:17.788Z,12.73
2017-09-29T06:57:46.082Z,10.57
2017-09-29T07:00:14.372Z,8.10
2017-09-29T07:02:42.660Z,8.13
2017-09-29T07:05:11.743Z,12.70
2017-09-29T07:07:40.026Z,7.40
2017-09-29T07:10:08.314Z,13.23
2017-09-29T07:12:36.618Z,11.23
2017-09-29T07:15:05.036Z,9.30
2017-09-29T07:17:33.318Z,12.73
2017-09-29T07:20:01.623Z,12.30
2017-09-29T07:22:29.930Z,12.30
2017-09-29T07:24:58.658Z,8.03
2017-09-29T07:27:30.095Z,10.60
2017-09-29T07:29:59.678Z,8.47
2017-09-29T07:32:28.482Z,10.20
2017-09-29T07:34:56.891Z,6.67
2017-09-29T07:37:25.177Z,7.97
2017-09-29T07:39:53.466Z,6.27
2017-09-29T07:42:21.756Z,7.20
2017-09-29T07:44:50.070Z,10.57
2017-09-29T07:47:18.356Z,6.70
2017-09-29T07:49:46.754Z,7.10
2017-09-29T07:52:15.097Z,4.80
2017-09-29T07:54:43.367Z,9.53
2017-09-29T07:57:11.779Z,6.13
2017-09-29T07:59:40.066Z,7.60
2017-09-29T08:02:08.346Z,4.83
2017-09-29T08:04:37.400Z,5.30
2017-09-29T08:07:05.683Z,5.00
2017-09-29T08:09:34.035Z,5.67
2017-09-29T08:12:02.324Z,9.80
2017-09-29T08:14:30.663Z,4.40
2017-09-29T08:16:59.711Z,5.23
2017-09-29T08:19:27.994Z,3.53
2017-09-29T08:21:57.069Z,5.20
2017-09-29T08:24:25.347Z,3.93
2017-09-29T08:26:53.639Z,3.50
2017-09-29T08:29:21.914Z,7.20
2017-09-29T08:31:50.973Z,3.53
2017-09-29T08:34:19.263Z,3.07
2017-09-29T08:36:47.592Z,3.40
2017-09-29T08:39:15.878Z,3.17
2017-09-29T08:41:44.199Z,4.73
2017-09-29T08:44:12.479Z,6.37
2017-09-29T08:46:40.767Z,3.37
2017-09-29T08:49:09.050Z,3.90
2017-09-29T08:51:38.110Z,8.50
2017-09-29T08:54:06.425Z,3.73
2017-09-29T08:56:34.736Z,3.60
2017-09-29T08:59:03.038Z,4.40
2017-09-29T09:01:31.356Z,5.30
2017-09-29T09:03:59.694Z,4.40
2017-09-29T09:06:27.985Z,5.23
2017-09-29T09:08:57.023Z,9.23
2017-09-29T09:11:25.330Z,6.10
2017-09-29T09:13:53.611Z,5.57
2017-09-29T09:16:21.895Z,4.67
2017-09-29T09:18:50.975Z,6.33
2017-09-29T09:21:19.254Z,7.63
2017-09-29T09:23:47.547Z,4.33
2017-09-29T09:26:15.860Z,6.00
2017-09-29T09:28:44.146Z,8.70
2017-09-29T09:31:12.469Z,9.23
2017-09-29T09:33:40.744Z,4.03
2017-09-29T09:36:09.840Z,9.37
2017-09-29T09:38:38.149Z,4.90
2017-09-29T09:41:07.165Z,7.50
2017-09-29T09:43:36.619Z,3.30
2017-09-29T09:46:05.048Z,2.90
2017-09-29T09:48:34.269Z,8.03
2017-09-29T09:51:02.923Z,3.40
2017-09-29T09:53:32.022Z,3.90
2017-09-29T09:56:00.302Z,9.13
2017-09-29T09:58:28.595Z,2.57
2017-09-29T10:00:56.883Z,7.07
2017-09-29T10:03:25.212Z,4.13
2017-09-29T10:05:53.498Z,4.43
2017-09-29T10:08:21.798Z,5.90
2017-09-29T10:10:50.087Z,2.80
2017-09-29T10:13:18.374Z,3.20
2017-09-29T10:15:47.422Z,4.60
2017-09-29T10:18:15.712Z,2.97
2017-09-29T10:20:44.030Z,8.20
2017-09-29T10:23:12.318Z,5.10
2017-09-29T10:25:42.364Z,6.33
2017-09-29T10:28:11.794Z,4.20
2017-09-29T10:30:40.073Z,4.37
2017-09-29T10:33:09.274Z,4.37
2017-09-29T10:35:37.772Z,10.80
2017-09-29T10:38:06.069Z,13.43
2017-09-29T10:40:34.363Z,5.20
2017-09-29T10:43:02.824Z,6.73
2017-09-29T10:45:31.255Z,3.43
2017-09-29T10:47:59.643Z,5.83
2017-09-29T10:50:27.966Z,2.53
2017-09-29T10:52:56.258Z,3.40
2017-09-29T10:55:24.542Z,11.63
2017-09-29T10:57:52.821Z,5.93
2017-09-29T11:00:21.873Z,2.97
2017-09-29T11:02:50.186Z,3.07
2017-09-29T11:05:18.486Z,3.07
2017-09-29T11:07:46.940Z,4.83
2017-09-29T11:10:16.126Z,6.40
2017-09-29T11:12:44.982Z,5.03
2017-09-29T11:15:14.036Z,6.37
2017-09-29T11:17:42.327Z,4.10
2017-09-29T11:20:10.637Z,3.80
2017-09-29T11:22:38.932Z,14.10
2017-09-29T11:25:08.010Z,5.87
2017-09-29T11:27:36.286Z,3.30
2017-09-29T11:30:04.610Z,11.80
2017-09-29T11:32:32.887Z,5.83
2017-09-29T11:35:01.216Z,5.07
2017-09-29T11:37:29.632Z,5.20
2017-09-29T11:39:58.702Z,4.63
2017-09-29T11:42:27.052Z,6.23
2017-09-29T11:44:55.324Z,6.47
2017-09-29T11:47:23.611Z,8.80
2017-09-29T11:49:51.939Z,5.10
2017-09-29T11:52:22.354Z,4.73
2017-09-29T11:54:50.629Z,5.17
2017-09-29T11:57:19.685Z,3.73
2017-09-29T11:59:52.417Z,4.70
2017-09-29T12:02:21.863Z,5.60
2017-09-29T12:04:50.155Z,8.57
2017-09-29T12:07:18.466Z,4.67
2017-09-29T12:09:46.750Z,6.73
2017-09-29T12:12:15.035Z,9.13
2017-09-29T12:14:44.236Z,3.77
2017-09-29T12:17:12.533Z,5.83
2017-09-29T12:19:40.813Z,6.00
2017-09-29T12:22:09.894Z,4.83
2017-09-29T12:24:38.183Z,7.63
2017-09-29T12:27:07.242Z,6.03
2017-09-29T12:29:35.535Z,7.43
2017-09-29T12:32:03.821Z,7.07
2017-09-29T12:34:32.433Z,8.27
2017-09-29T12:37:00.725Z,8.37
2017-09-29T12:39:29.770Z,4.10
2017-09-29T12:41:58.186Z,4.50
2017-09-29T12:44:26.502Z,5.47
2017-09-29T12:46:54.792Z,10.10
2017-09-29T12:49:23.073Z,7.47
2017-09-29T12:51:51.363Z,6.43
2017-09-29T12:54:19.690Z,10.10
2017-09-29T12:56:47.981Z,7.83
2017-09-29T12:59:16.263Z,7.03
2017-09-29T13:01:44.580Z,7.33
2017-09-29T13:04:12.895Z,9.43
2017-09-29T13:06:41.203Z,5.23
2017-09-29T13:09:09.489Z,4.03
2017-09-29T13:11:37.771Z,7.10
2017-09-29T13:14:06.062Z,5.47
2017-09-29T13:16:35.148Z,6.47
2017-09-29T13:19:03.428Z,4.83
2017-09-29T13:21:31.837Z,6.70
2017-09-29T13:24:00.109Z,5.90
2017-09-29T13:26:28.397Z,11.43
2017-09-29T13:28:56.734Z,10.80
2017-09-29T13:31:25.020Z,5.50
2017-09-29T13:33:53.329Z,5.37
2017-09-29T13:36:21.654Z,9.23
2017-09-29T13:38:49.944Z,5.50
2017-09-29T13:41:18.252Z,4.00
2017-09-29T13:43:46.542Z,10.43
2017-09-29T13:46:14.831Z,4.70
2017-09-29T13:48:43.105Z,7.53
2017-09-29T13:51:12.183Z,7.43
2017-09-29T13:53:41.051Z,8.47
2017-09-29T13:56:09.418Z,6.20
2017-09-29T13:58:37.779Z,8.43
2017-09-29T14:01:06.153Z,10.60
2017-09-29T14:03:34.604Z,8.20
2017-09-29T14:06:02.930Z,11.77
2017-09-29T14:08:31.210Z,5.87
2017-09-29T14:10:59.490Z,18.90
2017-09-29T14:13:27.782Z,10.83
2017-09-29T14:15:56.067Z,9.00
2017-09-29T14:18:25.134Z,6.40
2017-09-29T14:20:53.420Z,5.73
2017-09-29T14:23:21.722Z,6.17
2017-09-29T14:25:50.011Z,12.90
2017-09-29T14:28:18.333Z,8.30
2017-09-29T14:30:46.623Z,8.30
2017-09-29T14:33:14.951Z,11.73
2017-09-29T14:35:43.244Z,12.63
2017-09-29T14:38:11.567Z,13.20
2017-09-29T14:40:39.878Z,7.53
2017-09-29T14:43:08.157Z,10.43
2017-09-29T14:45:36.462Z,8.20
2017-09-29T14:48:04.773Z,8.80
2017-09-29T14:50:33.074Z,8.60
2017-09-29T14:53:01.895Z,5.93
2017-09-29T14:55:30.178Z,11.23
2017-09-29T14:57:58.473Z,10.93
2017-09-29T15:00:26.772Z,11.63
2017-09-29T15:02:55.050Z,8.10
2017-09-29T15:05:23.478Z,15.03
2017-09-29T15:07:51.765Z,11.73
2017-09-29T15:10:20.066Z,9.50
2017-09-29T15:12:47.859Z,6.40
2017-09-29T15:15:16.187Z,15.20
2017-09-29T15:17:44.500Z,6.60
2017-09-29T15:20:12.796Z,6.27
2017-09-29T15:22:41.082Z,9.73
2017-09-29T15:25:09.364Z,9.17
2017-09-29T15:27:37.650Z,9.70
2017-09-29T15:30:05.935Z,7.87
2017-09-29T15:32:34.997Z,12.63
2017-09-29T15:35:03.302Z,8.33
2017-09-29T15:37:31.713Z,15.50
2017-09-29T15:39:59.994Z,14.47
2017-09-29T15:42:28.530Z,9.77
2017-09-29T15:44:56.808Z,13.63
2017-09-29T15:47:25.094Z,9.00
2017-09-29T15:49:54.176Z,11.70
2017-09-29T15:52:23.220Z,8.80
2017-09-29T15:54:51.538Z,7.97
2017-09-29T15:57:20.077Z,12.00
2017-09-29T15:59:48.350Z,15.87
2017-09-29T16:02:16.626Z,8.67
2017-09-29T16:04:44.928Z,10.63
2017-09-29T16:07:13.244Z,8.90
2017-09-29T16:09:41.526Z,8.63
2017-09-29T16:12:10.570Z,13.77
2017-09-29T16:14:38.873Z,12.20
2017-09-29T16:17:07.170Z,16.10
2017-09-29T16:19:35.816Z,17.00
2017-09-29T16:22:04.137Z,14.83
2017-09-29T16:24:33.199Z,11.33
2017-09-29T16:27:02.114Z,10.77
2017-09-29T16:29:30.396Z,15.40
2017-09-29T16:31:58.690Z,14.50
2017-09-29T16:34:27.747Z,16.03
2017-09-29T16:36:56.054Z,19.77
2017-09-29T16:39:24.377Z,19.50
2017-09-29T16:41:52.684Z,21.73
2017-09-29T16:44:21.011Z,21.63
2017-09-29T16:46:50.120Z,23.03
2017-09-29T16:49:18.763Z,19.93
2017-09-29T16:51:47.062Z,21.77
2017-09-29T16:54:15.359Z,20.93
2017-09-29T16:56:43.653Z,22.03
2017-09-29T16:59:12.080Z,25.93
2017-09-29T17:01:40.373Z,26.20
2017-09-29T17:04:09.430Z,31.10
2017-09-29T17:06:37.724Z,25.27
2017-09-29T17:09:06.030Z,28.30
2017-09-29T17:11:34.326Z,28.67
2017-09-29T17:14:03.334Z,27.03
2017-09-29T17:16:31.661Z,26.63
2017-09-29T17:19:00.728Z,25.80
2017-09-29T17:21:29.935Z,25.13
2017-09-29T17:23:58.989Z,35.70
2017-09-29T17:26:27.294Z,28.37
2017-09-29T17:28:55.587Z,44.10
2017-09-29T17:31:23.885Z,38.47
2017-09-29T17:33:52.207Z,36.90
2017-09-29T17:36:20.510Z,34.50
2017-09-29T17:38:49.036Z,35.47
2017-09-29T17:41:18.152Z,31.10
2017-09-29T17:43:46.480Z,36.53
2017-09-29T17:46:14.774Z,32.13
2017-09-29T17:48:43.074Z,41.40
2017-09-29T17:51:12.131Z,30.00
2017-09-29T17:53:41.191Z,43.90
2017-09-29T17:56:09.497Z,31.40
2017-09-29T17:58:37.790Z,36.03
2017-09-29T18:01:06.087Z,36.23
2017-09-29T18:03:34.391Z,34.97
2017-09-29T18:06:02.710Z,33.50
2017-09-29T18:08:31.042Z,35.17
2017-09-29T18:11:00.139Z,37.37
2017-09-29T18:13:28.563Z,35.73
2017-09-29T18:15:56.999Z,33.63
2017-09-29T18:18:26.140Z,41.03
2017-09-29T18:20:54.452Z,36.63
2017-09-29T18:23:23.493Z,39.23
2017-09-29T18:25:52.867Z,37.30
2017-09-29T18:28:21.280Z,33.93
2017-09-29T18:30:49.702Z,30.93
2017-09-29T18:33:18.050Z,42.13
2017-09-29T18:35:46.339Z,38.90
2017-09-29T18:38:14.976Z,27.67
2017-09-29T18:40:47.486Z,28.30
2017-09-29T18:43:26.512Z,32.43
2017-09-29T18:45:55.384Z,31.63
2017-09-29T18:48:23.779Z,38.70
2017-09-29T18:50:52.236Z,32.23
2017-09-29T18:53:20.533Z,27.77
2017-09-29T18:55:48.862Z,28.13
2017-09-29T18:58:17.921Z,29.03
2017-09-29T19:00:46.230Z,25.50
2017-09-29T19:03:14.589Z,27.87
2017-09-29T19:05:43.650Z,20.70
2017-09-29T19:08:12.624Z,20.67
2017-09-29T19:10:41.836Z,23.30
2017-09-29T19:13:10.469Z,18.27
2017-09-29T19:15:39.141Z,27.77
2017-09-29T19:18:07.800Z,22.33
2017-09-29T19:20:36.200Z,17.87
2017-09-29T19:23:04.681Z,21.10
2017-09-29T19:25:33.263Z,27.63
2017-09-29T19:28:01.649Z,23.70
2017-09-29T19:30:30.105Z,26.53
2017-09-29T19:32:59.317Z,21.90
2017-09-29T19:35:27.829Z,16.43
2017-09-29T19:37:56.157Z,16.47
2017-09-29T19:40:24.463Z,22.23
2017-09-29T19:42:52.749Z,18.50
2017-09-29T19:45:21.089Z,19.20
2017-09-29T19:47:49.383Z,25.73
2017-09-29T19:50:17.889Z,18.87
2017-09-29T19:52:46.194Z,18.27
2017-09-29T19:55:14.488Z,20.27
2017-09-29T19:57:42.875Z,20.13
2017-09-29T20:00:11.341Z,20.57
2017-09-29T20:02:39.630Z,16.93
2017-09-29T20:05:08.063Z,16.70
2017-09-29T20:07:37.147Z,16.77
2017-09-29T20:10:05.438Z,20.27
2017-09-29T20:12:33.754Z,16.57
2017-09-29T20:15:02.167Z,17.27
2017-09-29T20:17:30.464Z,19.83
2017-09-29T20:19:58.799Z,19.20
2017-09-29T20:22:27.871Z,16.10
2017-09-29T20:24:56.169Z,18.63
2017-09-29T20:27:24.591Z,15.13
2017-09-29T20:29:52.887Z,19.87
2017-09-29T20:32:21.191Z,21.13
2017-09-29T20:34:49.530Z,35.77
2017-09-29T20:37:18.586Z,23.00
2017-09-29T20:39:46.886Z,23.00
2017-09-29T20:42:15.177Z,18.00
2017-09-29T20:44:43.478Z,20.33
2017-09-29T20:47:11.821Z,22.40
2017-09-29T20:49:40.115Z,16.53
2017-09-29T20:52:08.402Z,20.23
2017-09-29T20:54:36.767Z,18.03
2017-09-29T20:57:05.158Z,17.20
2017-09-29T20:59:33.592Z,28.67
2017-09-29T21:02:01.886Z,21.60
2017-09-29T21:04:30.182Z,21.80
2017-09-29T21:06:58.492Z,18.23
2017-09-29T21:09:26.783Z,13.20
2017-09-29T21:11:55.838Z,15.33
2017-09-29T21:14:24.139Z,22.87
2017-09-29T21:16:52.433Z,17.30
2017-09-29T21:19:20.753Z,13.77
2017-09-29T21:21:49.067Z,21.90
2017-09-29T21:24:17.355Z,17.27
2017-09-29T21:26:45.780Z,18.03
2017-09-29T21:29:14.074Z,18.80
2017-09-29T21:31:42.367Z,14.00
2017-09-29T21:34:10.659Z,16.07
2017-09-29T21:36:38.979Z,20.37
2017-09-29T21:39:07.274Z,14.40
2017-09-29T21:41:35.598Z,23.43
2017-09-29T21:44:03.891Z,20.43
2017-09-29T21:46:32.209Z,17.30
2017-09-29T21:49:01.283Z,17.30
2017-09-29T21:51:29.574Z,14.53
2017-09-29T21:53:57.886Z,14.10
2017-09-29T21:56:26.212Z,18.33
2017-09-29T21:58:54.513Z,18.10
2017-09-29T22:01:22.815Z,12.73
2017-09-29T22:03:51.104Z,21.47
2017-09-29T22:06:19.431Z,16.43
2017-09-29T22:08:47.725Z,17.90
2017-09-29T22:11:16.048Z,12.20
2017-09-29T22:13:44.339Z,23.50
2017-09-29T22:16:12.634Z,15.53
2017-09-29T22:18:40.933Z,13.23
2017-09-29T22:21:09.273Z,18.93
2017-09-29T22:23:37.570Z,14.47
2017-09-29T22:26:06.671Z,18.37
2017-09-29T22:28:34.970Z,20.73
2017-09-29T22:31:03.264Z,19.10
2017-09-29T22:33:31.566Z,19.63
2017-09-29T22:35:59.857Z,20.83
2017-09-29T22:38:28.183Z,27.53
2017-09-29T22:40:56.474Z,21.23
2017-09-29T22:43:24.804Z,19.30
2017-09-29T22:45:53.099Z,19.70
2017-09-29T22:48:22.163Z,21.77
2017-09-29T22:50:50.456Z,18.80
2017-09-29T22:53:18.854Z,22.67
2017-09-29T22:55:47.177Z,21.97
2017-09-29T22:58:15.503Z,20.63
2017-09-29T23:00:43.794Z,22.83
2017-09-29T23:03:12.094Z,25.33
2017-09-29T23:05:40.391Z,19.20
2017-09-29T23:08:08.674Z,20.70
2017-09-29T23:10:36.970Z,19.30
2017-09-29T23:13:05.286Z,22.73
2017-09-29T23:15:34.425Z,23.47
2017-09-29T23:18:02.734Z,26.63
2017-09-29T23:20:31.055Z,23.90
2017-09-29T23:23:00.122Z,19.43
2017-09-29T23:25:28.414Z,21.63
2017-09-29T23:27:56.717Z,22.10
2017-09-29T23:30:25.051Z,27.73
2017-09-29T23:32:53.351Z,30.57
2017-09-29T23:35:21.644Z,25.53
2017-09-29T23:37:49.939Z,25.83
2017-09-29T23:40:18.242Z,24.77
2017-09-29T23:42:46.978Z,24.40
2017-09-29T23:45:15.277Z,26.63
2017-09-29T23:47:43.566Z,30.53
2017-09-29T23:50:11.852Z,25.67
2017-09-29T23:52:40.150Z,25.03
2017-09-29T23:55:08.451Z,34.53
2017-09-29T23:57:36.737Z,27.30
